createdAt,value
2019-04-14T00:02:29.392Z,1.58
2019-04-14T00:04:59.524Z,1.56
2019-04-14T00:07:29.732Z,1.53
2019-04-14T00:09:58.790Z,1.51
2019-04-14T00:12:27.485Z,1.48
2019-04-14T00:14:56.160Z,1.44
2019-04-14T00:17:24.823Z,1.39
2019-04-14T00:19:54.423Z,1.35
2019-04-14T00:22:23.352Z,1.31
2019-04-14T00:24:53.216Z,1.28
2019-04-14T00:27:21.981Z,1.27
2019-04-14T00:29:50.665Z,1.25
2019-04-14T00:32:20.403Z,1.18
2019-04-14T00:34:51.016Z,1.15
2019-04-14T00:37:27.386Z,1.11
2019-04-14T00:40:01.869Z,1.05
2019-04-14T00:42:34.973Z,0.97
2019-04-14T00:45:06.974Z,0.90
2019-04-14T00:47:51.920Z,0.85
2019-04-14T00:50:11.040Z,0.84
2019-04-14T00:52:39.670Z,0.80
2019-04-14T00:55:09.716Z,0.78
2019-04-14T00:57:38.476Z,0.80
2019-04-14T01:00:10.415Z,0.84
2019-04-14T01:02:39.238Z,0.85
2019-04-14T01:05:09.028Z,0.87
2019-04-14T01:07:38.885Z,0.88
2019-04-14T01:10:08.284Z,0.91
2019-04-14T01:12:36.925Z,0.91
2019-04-14T01:15:07.199Z,0.91
2019-04-14T01:17:35.995Z,0.91
2019-04-14T01:20:05.951Z,0.90
2019-04-14T01:22:35.821Z,0.84
2019-04-14T01:25:06.894Z,0.80
2019-04-14T01:27:36.331Z,0.77
2019-04-14T01:30:08.726Z,0.75
2019-04-14T01:32:37.434Z,0.73
2019-04-14T01:35:07.517Z,0.70
2019-04-14T01:37:37.587Z,0.65
2019-04-14T01:40:07.571Z,0.61
2019-04-14T01:42:36.123Z,0.60
2019-04-14T01:45:07.941Z,0.63
2019-04-14T01:47:37.698Z,0.66
2019-04-14T01:50:06.983Z,0.70
2019-04-14T01:52:38.400Z,0.74
2019-04-14T01:55:09.615Z,0.77
2019-04-14T01:57:39.873Z,0.79
2019-04-14T02:00:29.223Z,0.82
2019-04-14T02:02:58.265Z,0.84
2019-04-14T02:05:27.769Z,0.83
2019-04-14T02:07:56.554Z,0.84
2019-04-14T02:10:25.886Z,0.88
2019-04-14T02:12:54.881Z,0.88
2019-04-14T02:15:24.425Z,0.92
2019-04-14T02:17:54.495Z,0.93
2019-04-14T02:20:23.429Z,0.93
2019-04-14T02:22:53.192Z,0.92
2019-04-14T02:25:23.020Z,0.92
2019-04-14T02:27:51.998Z,0.92
2019-04-14T02:30:26.279Z,0.93
2019-04-14T02:36:14.565Z,0.92
2019-04-14T02:38:33.880Z,0.95
2019-04-14T02:40:53.841Z,0.93
2019-04-14T02:43:25.684Z,0.95
2019-04-14T02:45:50.592Z,0.95
2019-04-14T02:48:38.273Z,0.96
2019-04-14T02:50:47.699Z,0.94
2019-04-14T02:56:00.772Z,0.95
2019-04-14T02:58:28.491Z,0.97
2019-04-14T03:01:02.330Z,0.97
2019-04-14T03:03:27.903Z,0.99
2019-04-14T03:06:01.104Z,1.00
2019-04-14T03:08:25.936Z,1.02
2019-04-14T03:10:55.827Z,1.02
2019-04-14T03:15:59.050Z,1.00
2019-04-14T03:18:35.150Z,0.97
2019-04-14T03:20:55.310Z,0.98
2019-04-14T03:23:43.916Z,0.97
2019-04-14T03:26:04.818Z,0.97
2019-04-14T03:28:50.806Z,0.97
2019-04-14T03:31:39.149Z,1.02
2019-04-14T03:37:39.259Z,1.10
2019-04-14T03:38:53.299Z,1.11
2019-04-14T03:43:43.137Z,1.08
2019-04-14T03:46:25.419Z,1.09
2019-04-14T03:53:50.668Z,1.12
2019-04-14T03:56:02.332Z,1.10
2019-04-14T03:58:29.251Z,1.08
2019-04-14T04:00:58.057Z,1.14
2019-04-14T04:03:26.641Z,1.22
2019-04-14T04:05:56.320Z,1.31
2019-04-14T04:08:25.286Z,1.38
2019-04-14T04:10:55.579Z,1.44
2019-04-14T04:13:24.182Z,1.51
2019-04-14T04:15:54.355Z,1.58
2019-04-14T04:18:24.653Z,1.64
2019-04-14T04:20:58.821Z,1.70
2019-04-14T04:23:35.650Z,1.75
2019-04-14T04:26:21.765Z,1.82
2019-04-14T04:28:56.138Z,1.89
2019-04-14T04:31:26.780Z,1.97
2019-04-14T04:34:09.813Z,2.02
2019-04-14T04:36:53.057Z,2.08
2019-04-14T04:39:26.410Z,2.15
2019-04-14T04:41:55.777Z,2.22
2019-04-14T04:44:24.810Z,2.30
2019-04-14T04:46:54.802Z,2.36
2019-04-14T04:49:26.569Z,2.41
2019-04-14T04:51:55.041Z,2.47
2019-04-14T04:54:23.779Z,2.53
2019-04-14T04:56:52.443Z,2.59
2019-04-14T04:59:23.458Z,2.66
2019-04-14T05:01:52.405Z,2.74
2019-04-14T05:04:22.000Z,2.81
2019-04-14T05:07:01.660Z,2.88
2019-04-14T05:09:39.130Z,2.95
2019-04-14T05:12:22.214Z,3.02
2019-04-14T05:15:01.511Z,3.10
2019-04-14T05:17:38.900Z,3.20
2019-04-14T05:20:09.432Z,3.28
2019-04-14T05:22:38.221Z,3.41
2019-04-14T05:25:07.978Z,3.53
2019-04-14T05:27:36.681Z,3.64
2019-04-14T05:30:06.900Z,3.72
2019-04-14T05:32:36.932Z,3.81
2019-04-14T05:35:07.477Z,3.88
2019-04-14T05:37:36.085Z,3.92
2019-04-14T05:40:08.141Z,3.94
2019-04-14T05:42:38.397Z,3.97
2019-04-14T05:45:08.663Z,3.97
2019-04-14T05:47:37.404Z,3.98
2019-04-14T05:50:07.867Z,3.97
2019-04-14T05:52:36.487Z,3.97
2019-04-14T05:55:07.315Z,3.97
2019-04-14T05:57:35.874Z,3.99
2019-04-14T06:00:08.307Z,4.08
2019-04-14T06:02:37.736Z,4.23
2019-04-14T06:05:08.885Z,4.38
2019-04-14T06:07:37.348Z,4.55
2019-04-14T06:10:07.383Z,4.73
2019-04-14T06:12:36.004Z,4.94
2019-04-14T06:15:06.065Z,5.15
2019-04-14T06:17:43.909Z,5.36
2019-04-14T06:20:12.905Z,5.58
2019-04-14T06:22:41.464Z,5.63
2019-04-14T06:25:10.091Z,5.66
2019-04-14T06:27:38.720Z,5.80
2019-04-14T06:30:22.066Z,5.97
2019-04-14T06:32:51.535Z,6.01
2019-04-14T06:35:33.787Z,6.24
2019-04-14T06:38:05.843Z,6.35
2019-04-14T06:40:48.285Z,6.65
2019-04-14T06:43:16.849Z,6.84
2019-04-14T06:45:45.506Z,7.11
2019-04-14T06:48:14.101Z,7.45
2019-04-14T06:50:42.607Z,7.68
2019-04-14T06:53:11.158Z,7.86
2019-04-14T06:55:39.683Z,7.90
2019-04-14T06:58:08.285Z,8.01
2019-04-14T07:00:37.047Z,8.16
2019-04-14T07:03:05.678Z,8.26
2019-04-14T07:05:34.180Z,8.35
2019-04-14T07:08:03.459Z,8.44
2019-04-14T07:10:32.031Z,8.58
2019-04-14T07:13:00.828Z,8.69
2019-04-14T07:15:29.458Z,8.71
2019-04-14T07:17:58.045Z,8.51
2019-04-14T07:20:26.601Z,8.49
2019-04-14T07:22:55.239Z,8.47
2019-04-14T07:25:23.724Z,8.51
2019-04-14T07:27:52.372Z,8.60
2019-04-14T07:30:25.183Z,8.84
2019-04-14T07:32:55.333Z,9.06
2019-04-14T07:35:41.375Z,9.24
2019-04-14T07:38:11.641Z,9.43
2019-04-14T07:40:50.646Z,9.49
2019-04-14T07:43:34.297Z,9.69
2019-04-14T07:46:04.503Z,9.65
2019-04-14T07:48:40.849Z,9.91
2019-04-14T07:51:13.802Z,9.98
2019-04-14T07:53:55.777Z,9.99
2019-04-14T07:56:32.171Z,9.98
2019-04-14T07:59:04.895Z,10.06
2019-04-14T08:01:35.195Z,10.29
2019-04-14T08:04:05.484Z,10.41
2019-04-14T08:06:34.484Z,10.64
2019-04-14T08:09:03.121Z,10.44
2019-04-14T08:11:31.606Z,10.28
2019-04-14T08:14:00.102Z,10.26
2019-04-14T08:16:28.583Z,10.32
2019-04-14T08:18:57.322Z,10.65
2019-04-14T08:21:25.958Z,10.93
2019-04-14T08:23:54.511Z,10.93
2019-04-14T08:26:23.092Z,10.71
2019-04-14T08:28:51.592Z,10.84
2019-04-14T08:31:20.314Z,11.10
2019-04-14T08:33:48.967Z,11.23
2019-04-14T08:36:17.596Z,11.45
2019-04-14T08:38:46.237Z,11.41
2019-04-14T08:41:14.871Z,11.17
2019-04-14T08:43:47.837Z,11.16
2019-04-14T08:46:21.188Z,11.19
2019-04-14T08:48:51.383Z,11.01
2019-04-14T08:51:27.540Z,10.77
2019-04-14T08:54:09.790Z,10.60
2019-04-14T08:56:49.181Z,10.45
2019-04-14T08:59:25.404Z,10.30
2019-04-14T09:02:01.372Z,10.22
2019-04-14T09:04:34.405Z,10.17
2019-04-14T09:07:20.872Z,10.08
2019-04-14T09:10:00.266Z,10.15
2019-04-14T09:12:33.206Z,10.28
2019-04-14T09:15:01.768Z,10.35
2019-04-14T09:17:31.165Z,10.61
2019-04-14T09:19:59.880Z,10.80
2019-04-14T09:22:28.517Z,10.92
2019-04-14T09:24:57.110Z,11.21
2019-04-14T09:27:25.704Z,11.39
2019-04-14T09:29:54.263Z,11.43
2019-04-14T09:32:23.452Z,11.16
2019-04-14T09:34:52.014Z,10.96
2019-04-14T09:37:20.572Z,11.17
2019-04-14T09:39:49.199Z,11.42
2019-04-14T09:42:17.829Z,11.79
2019-04-14T09:44:46.391Z,11.82
2019-04-14T09:47:14.949Z,11.73
2019-04-14T09:49:43.620Z,11.66
2019-04-14T09:52:12.258Z,11.75
2019-04-14T09:54:40.839Z,11.57
2019-04-14T09:57:09.511Z,11.56
2019-04-14T09:59:38.075Z,11.32
2019-04-14T10:02:07.048Z,11.10
2019-04-14T10:04:35.677Z,11.28
2019-04-14T10:07:04.548Z,11.46
2019-04-14T10:09:33.259Z,11.53
2019-04-14T10:12:01.862Z,11.50
2019-04-14T10:14:30.612Z,11.97
2019-04-14T10:17:01.364Z,11.99
2019-04-14T10:19:33.280Z,12.00
2019-04-14T10:22:01.853Z,12.08
2019-04-14T10:24:30.512Z,12.31
2019-04-14T10:26:59.140Z,12.67
2019-04-14T10:29:27.808Z,12.66
2019-04-14T10:31:56.447Z,12.95
2019-04-14T10:34:25.157Z,12.86
2019-04-14T10:36:53.848Z,12.74
2019-04-14T10:39:22.500Z,12.76
2019-04-14T10:41:51.067Z,12.95
2019-04-14T10:44:19.795Z,12.94
2019-04-14T10:46:48.256Z,12.66
2019-04-14T10:49:16.938Z,13.11
2019-04-14T10:51:47.144Z,13.17
2019-04-14T10:54:16.820Z,13.06
2019-04-14T10:56:45.638Z,12.73
2019-04-14T10:59:14.229Z,12.39
2019-04-14T11:01:42.858Z,12.38
2019-04-14T11:04:11.528Z,12.11
2019-04-14T11:06:41.731Z,12.23
2019-04-14T11:09:14.942Z,12.14
2019-04-14T11:11:43.770Z,12.64
2019-04-14T11:14:12.410Z,12.92
2019-04-14T11:16:41.163Z,13.01
2019-04-14T11:19:09.817Z,12.84
2019-04-14T11:21:42.779Z,12.73
2019-04-14T11:24:08.597Z,13.02
2019-04-14T11:26:37.173Z,13.25
2019-04-14T11:29:06.014Z,13.42
2019-04-14T11:31:36.287Z,13.46
2019-04-14T11:34:04.874Z,13.24
2019-04-14T11:36:51.253Z,13.56
2019-04-14T11:39:24.156Z,13.71
2019-04-14T11:41:52.649Z,13.83
2019-04-14T11:44:21.287Z,13.74
2019-04-14T11:46:49.894Z,13.51
2019-04-14T11:49:18.537Z,13.43
2019-04-14T11:51:55.063Z,13.25
2019-04-14T11:54:17.580Z,13.18
2019-04-14T11:56:46.345Z,12.96
2019-04-14T11:59:15.409Z,13.17
2019-04-14T12:01:45.615Z,13.22
2019-04-14T12:04:34.646Z,13.10
2019-04-14T12:07:21.075Z,12.98
2019-04-14T12:09:51.415Z,12.99
2019-04-14T12:12:19.976Z,12.93
2019-04-14T12:14:50.056Z,12.59
2019-04-14T12:17:18.614Z,12.51
2019-04-14T12:19:47.267Z,12.58
2019-04-14T12:22:15.898Z,12.81
2019-04-14T12:24:44.473Z,12.77
2019-04-14T12:27:13.596Z,12.76
2019-04-14T12:29:43.326Z,12.73
2019-04-14T12:32:13.013Z,12.79
2019-04-14T12:34:41.649Z,12.73
2019-04-14T12:37:10.277Z,12.57
2019-04-14T12:39:38.979Z,12.61
2019-04-14T12:42:27.449Z,12.46
2019-04-14T12:45:00.686Z,12.42
2019-04-14T12:47:43.186Z,12.35
2019-04-14T12:50:14.086Z,12.20
2019-04-14T12:52:42.639Z,12.18
2019-04-14T12:55:11.740Z,12.21
2019-04-14T12:57:56.944Z,12.25
2019-04-14T13:00:45.328Z,12.35
2019-04-14T13:03:13.958Z,12.43
2019-04-14T13:05:42.687Z,12.45
2019-04-14T13:08:11.260Z,12.31
2019-04-14T13:10:39.889Z,12.15
2019-04-14T13:13:08.523Z,12.00
2019-04-14T13:15:37.114Z,11.99
2019-04-14T13:18:05.780Z,12.06
2019-04-14T13:20:34.471Z,11.99
2019-04-14T13:23:03.007Z,11.86
2019-04-14T13:25:31.651Z,11.73
2019-04-14T13:28:00.240Z,11.71
2019-04-14T13:30:30.511Z,11.59
2019-04-14T13:32:59.191Z,11.56
2019-04-14T13:35:27.823Z,11.50
2019-04-14T13:37:56.475Z,11.48
2019-04-14T13:40:25.238Z,11.39
2019-04-14T13:42:53.880Z,11.31
2019-04-14T13:45:22.508Z,11.16
2019-04-14T13:47:51.074Z,11.16
2019-04-14T13:50:19.702Z,11.04
2019-04-14T13:52:48.267Z,10.96
2019-04-14T13:55:17.239Z,10.86
2019-04-14T13:57:45.803Z,10.85
2019-04-14T14:00:15.600Z,10.85
2019-04-14T14:02:44.230Z,10.92
2019-04-14T14:05:12.859Z,10.87
2019-04-14T14:07:41.597Z,10.78
2019-04-14T14:10:11.185Z,10.77
2019-04-14T14:12:44.331Z,10.81
2019-04-14T14:15:18.084Z,10.84
2019-04-14T14:18:04.411Z,10.83
2019-04-14T14:20:43.524Z,10.83
2019-04-14T14:23:16.615Z,10.83
2019-04-14T14:25:49.817Z,10.90
2019-04-14T14:28:18.610Z,10.91
2019-04-14T14:30:47.336Z,10.88
2019-04-14T14:33:15.977Z,10.84
2019-04-14T14:35:44.509Z,10.74
2019-04-14T14:38:13.039Z,10.73
2019-04-14T14:40:41.674Z,10.66
2019-04-14T14:43:10.305Z,10.61
2019-04-14T14:45:43.558Z,10.62
2019-04-14T14:48:13.735Z,10.66
2019-04-14T14:50:46.802Z,10.65
2019-04-14T14:53:15.431Z,10.61
2019-04-14T14:55:46.639Z,10.56
2019-04-14T14:58:15.271Z,10.51
2019-04-14T15:00:43.993Z,10.40
2019-04-14T15:03:14.292Z,10.35
2019-04-14T15:05:42.862Z,10.37
2019-04-14T15:08:11.495Z,10.34
2019-04-14T15:10:40.181Z,10.37
2019-04-14T15:13:08.831Z,10.29
2019-04-14T15:15:38.630Z,10.27
2019-04-14T15:18:07.249Z,10.23
2019-04-14T15:20:36.002Z,10.21
2019-04-14T15:23:05.331Z,10.21
2019-04-14T15:25:34.015Z,10.16
2019-04-14T15:28:02.496Z,10.13
2019-04-14T15:30:31.298Z,10.12
2019-04-14T15:32:59.855Z,10.02
2019-04-14T15:35:28.643Z,9.98
2019-04-14T15:37:57.267Z,9.95
2019-04-14T15:40:25.924Z,9.94
2019-04-14T15:42:56.855Z,9.94
2019-04-14T15:45:25.497Z,9.92
2019-04-14T15:47:54.128Z,9.87
2019-04-14T15:50:22.770Z,9.83
2019-04-14T15:52:51.328Z,9.83
2019-04-14T15:55:20.067Z,9.78
2019-04-14T15:57:56.531Z,9.78
2019-04-14T16:00:43.152Z,9.77
2019-04-14T16:03:22.429Z,9.75
2019-04-14T16:05:52.722Z,9.70
2019-04-14T16:08:22.987Z,9.60
2019-04-14T16:11:04.860Z,9.57
2019-04-14T16:13:35.309Z,9.49
2019-04-14T16:16:11.502Z,9.44
2019-04-14T16:18:44.383Z,9.42
2019-04-14T16:21:13.107Z,9.33
2019-04-14T16:23:50.511Z,9.32
2019-04-14T16:26:25.525Z,9.30
2019-04-14T16:29:07.611Z,9.27
2019-04-14T16:31:43.961Z,9.22
2019-04-14T16:34:18.377Z,9.18
2019-04-14T16:36:48.604Z,9.15
2019-04-14T16:39:17.245Z,9.11
2019-04-14T16:41:45.905Z,9.04
2019-04-14T16:44:14.532Z,8.96
2019-04-14T16:46:43.125Z,8.90
2019-04-14T16:49:11.857Z,8.83
2019-04-14T16:51:54.048Z,8.80
2019-04-14T16:54:29.960Z,8.74
2019-04-14T16:57:02.859Z,8.69
2019-04-14T16:59:31.554Z,8.64
2019-04-14T17:02:10.364Z,8.60
2019-04-14T17:04:30.741Z,8.53
2019-04-14T17:06:59.367Z,8.49
2019-04-14T17:09:29.013Z,8.43
2019-04-14T17:11:59.355Z,8.36
2019-04-14T17:14:29.643Z,8.31
2019-04-14T17:17:05.652Z,8.25
2019-04-14T17:19:35.852Z,8.20
2019-04-14T17:22:09.101Z,8.13
2019-04-14T17:24:55.336Z,8.07
2019-04-14T17:27:25.635Z,8.00
2019-04-14T17:29:55.824Z,7.93
2019-04-14T17:32:26.275Z,7.89
2019-04-14T17:35:02.189Z,7.82
2019-04-14T17:37:51.287Z,7.74
2019-04-14T17:40:37.894Z,7.67
2019-04-14T17:43:08.074Z,7.61
2019-04-14T17:45:54.277Z,7.51
2019-04-14T17:48:27.681Z,7.44
2019-04-14T17:51:03.289Z,7.37
2019-04-14T17:53:32.777Z,7.30
2019-04-14T17:56:03.056Z,7.23
2019-04-14T17:58:36.418Z,7.15
2019-04-14T18:01:06.997Z,7.09
2019-04-14T18:03:42.980Z,7.03
2019-04-14T18:06:16.226Z,7.00
2019-04-14T18:08:58.642Z,6.93
2019-04-14T18:11:37.375Z,6.87
2019-04-14T18:14:07.722Z,6.79
2019-04-14T18:16:56.098Z,6.73
2019-04-14T18:19:26.434Z,6.65
2019-04-14T18:21:55.090Z,6.58
2019-04-14T18:24:23.664Z,6.52
2019-04-14T18:26:52.356Z,6.46
2019-04-14T18:29:37.596Z,6.39
2019-04-14T18:32:14.031Z,6.32
2019-04-14T18:35:00.433Z,6.27
2019-04-14T18:37:30.658Z,6.21
2019-04-14T18:40:15.916Z,6.16
2019-04-14T18:42:46.232Z,6.10
2019-04-14T18:45:23.583Z,6.04
2019-04-14T18:47:53.852Z,6.01
2019-04-14T18:50:26.981Z,5.98
2019-04-14T18:53:03.044Z,5.94
2019-04-14T18:55:33.554Z,5.86
2019-04-14T18:58:12.531Z,5.80
2019-04-14T19:00:54.944Z,5.73
2019-04-14T19:03:23.501Z,5.70
2019-04-14T19:05:52.219Z,5.68
2019-04-14T19:08:20.846Z,5.63
2019-04-14T19:10:59.942Z,5.59
2019-04-14T19:13:30.238Z,5.56
2019-04-14T19:16:16.673Z,5.55
2019-04-14T19:18:46.908Z,5.52
2019-04-14T19:21:17.207Z,5.50
2019-04-14T19:23:46.747Z,5.49
2019-04-14T19:26:15.601Z,5.46
2019-04-14T19:28:44.233Z,5.43
2019-04-14T19:31:13.015Z,5.40
2019-04-14T19:33:41.642Z,5.39
2019-04-14T19:36:10.243Z,5.39
2019-04-14T19:38:38.865Z,5.35
2019-04-14T19:41:07.494Z,5.34
2019-04-14T19:43:36.246Z,5.32
2019-04-14T19:46:04.870Z,5.29
2019-04-14T19:48:33.501Z,5.23
2019-04-14T19:51:02.005Z,5.17
2019-04-14T19:53:30.558Z,5.07
2019-04-14T19:55:59.223Z,5.01
2019-04-14T19:58:27.782Z,4.95
2019-04-14T20:00:56.479Z,4.89
2019-04-14T20:03:25.107Z,4.80
2019-04-14T20:05:53.727Z,4.73
2019-04-14T20:08:22.383Z,4.67
2019-04-14T20:10:50.993Z,4.62
2019-04-14T20:13:19.644Z,4.52
2019-04-14T20:15:52.772Z,4.46
2019-04-14T20:18:22.983Z,4.42
2019-04-14T20:21:11.601Z,4.36
2019-04-14T20:23:53.812Z,4.35
2019-04-14T20:26:36.029Z,4.31
2019-04-14T20:29:10.764Z,4.25
2019-04-14T20:31:40.960Z,4.18
2019-04-14T20:34:10.305Z,4.12
2019-04-14T20:36:39.016Z,4.08
2019-04-14T20:39:10.327Z,4.07
2019-04-14T20:41:39.482Z,4.04
2019-04-14T20:44:08.065Z,4.02
2019-04-14T20:46:37.043Z,3.95
2019-04-14T20:49:06.049Z,3.91
2019-04-14T20:51:34.659Z,3.88
2019-04-14T20:54:03.288Z,3.85
2019-04-14T20:56:33.201Z,3.83
2019-04-14T20:59:01.835Z,3.80
2019-04-14T21:01:32.208Z,3.75
2019-04-14T21:04:05.656Z,3.71
2019-04-14T21:06:38.869Z,3.66
2019-04-14T21:09:15.458Z,3.63
2019-04-14T21:11:51.755Z,3.59
2019-04-14T21:14:21.986Z,3.53
2019-04-14T21:16:52.355Z,3.47
2019-04-14T21:19:22.679Z,3.43
2019-04-14T21:21:52.996Z,3.37
2019-04-14T21:24:23.220Z,3.32
2019-04-14T21:26:53.476Z,3.30
2019-04-14T21:29:42.042Z,3.26
2019-04-14T21:32:14.865Z,3.22
2019-04-14T21:35:03.172Z,3.19
2019-04-14T21:37:49.319Z,3.16
2019-04-14T21:40:19.705Z,3.12
2019-04-14T21:42:48.424Z,3.07
2019-04-14T21:45:17.058Z,3.02
2019-04-14T21:47:45.636Z,3.02
2019-04-14T21:50:14.668Z,2.99
2019-04-14T21:52:44.943Z,2.92
2019-04-14T21:55:13.874Z,2.90
2019-04-14T21:57:46.613Z,2.86
2019-04-14T22:00:26.829Z,2.79
2019-04-14T22:03:13.488Z,2.77
2019-04-14T22:05:49.892Z,2.75
2019-04-14T22:08:31.964Z,2.66
2019-04-14T22:11:04.980Z,2.64
2019-04-14T22:13:33.529Z,2.56
2019-04-14T22:16:02.363Z,2.51
2019-04-14T22:18:31.025Z,2.47
2019-04-14T22:20:59.653Z,2.43
2019-04-14T22:23:28.521Z,2.36
2019-04-14T22:25:57.144Z,2.31
2019-04-14T22:28:25.848Z,2.24
2019-04-14T22:30:54.630Z,2.15
2019-04-14T22:33:23.265Z,2.11
2019-04-14T22:35:52.087Z,2.10
2019-04-14T22:38:20.799Z,2.07
2019-04-14T22:40:50.576Z,2.03
2019-04-14T22:43:19.306Z,2.01
2019-04-14T22:45:47.929Z,1.99
2019-04-14T22:48:16.622Z,1.96
2019-04-14T22:50:45.404Z,1.95
2019-04-14T22:53:14.046Z,1.91
2019-04-14T22:55:42.621Z,1.90
2019-04-14T22:58:11.302Z,1.87
2019-04-14T23:00:56.777Z,1.83
2019-04-14T23:03:27.044Z,1.78
2019-04-14T23:06:03.050Z,1.76
2019-04-14T23:08:33.610Z,1.74
2019-04-14T23:11:03.838Z,1.68
2019-04-14T23:13:42.902Z,1.67
2019-04-14T23:16:29.248Z,1.67
2019-04-14T23:19:17.674Z,1.65
2019-04-14T23:21:47.899Z,1.62
2019-04-14T23:24:20.779Z,1.57
2019-04-14T23:26:52.768Z,1.55
2019-04-14T23:29:19.836Z,1.51
2019-04-14T23:31:48.759Z,1.48
2019-04-14T23:34:17.590Z,1.45
2019-04-14T23:36:46.140Z,1.40
2019-04-14T23:39:14.968Z,1.34
2019-04-14T23:41:44.156Z,1.32
2019-04-14T23:44:12.806Z,1.31
2019-04-14T23:46:41.453Z,1.30
2019-04-14T23:49:10.175Z,1.28
2019-04-14T23:51:38.809Z,1.24
2019-04-14T23:54:07.516Z,1.24
2019-04-14T23:56:36.182Z,1.22
2019-04-14T23:59:05.008Z,1.18
